Terminal Aerodrome Forecast
Issued by NWS

Home | Current Version | Previous Version | Text Only | Print | Product List | Glossary On
Versions: 1 2 3 4 5 6 7 8 9 10 11
000
FTUS45 KREV 180534
TAFRNO
TAF
KRNO 180534Z 1806/1906 27008KT P6SM SCT200
     FM180800 20015G25KT P6SM SCT200
     FM181400 22028G42KT P6SM SCT100 WS020/26050KT
     FM182300 29020G30KT 2SM -SHSN BKN020 OVC030
     FM190200 32012G25KT P6SM VCSH BKN030=

USA.gov is the U.S. government's official web portal to all federal, state and local government web resources and services.